Johnson City, Texas
Current Conditions -  °F | °C
As of 11:35 AM on Monday 22 Dec 2014 (Local Time) from KDZB Reporting Station
Clear Clear  
Wind Chill: 71°   Ceiling: Unl
Heat Index: 71°   Visibility: 10mi
Dew Point: 42°   Wind: 7mph
Humidity: 35%   Direction: 280°W
Pressure: 29.69"   Gusts: NA
Location:  30.28°N, 98.41°W
Report Text: KDZB 221735Z AUTO 28006KT 10SM CLR 22/06 A2969 RMK AO2 T02160055
Loading
Personal Weather Stations






























Interactive Weather Map New forecast layout! Learn more

10-Day Weather Forecast

Advertisements
Track Severe Weather on mobile